Time;durP1;ratioP1;P1;durP2;ratioP2;P2;SDS_P1;SDS_P2;PMS_P1;PMS_P2;Temp;Humidity;BMP_temperature;BMP_pressure;BME280_temperature;BME280_humidity;BME280_pressure;Samples;Min_cycle;Max_cycle;Signal;HPM_P1;HPM_P2
2022/12/18 00:00:00;;;;;;;46.93;18.63;;;;;;;-4.07;90.48;102226.09;1756888;80;21282;-76
2022/12/18 00:02:27;;;;;;;44.07;18.70;;;;;;;-4.04;90.55;102228.81;1772579;80;21001;-75
2022/12/18 00:04:54;;;;;;;36.97;16.50;;;;;;;-4.04;90.33;102229.69;1776499;80;20984;-75
2022/12/18 00:07:22;;;;;;;36.27;15.30;;;;;;;-4.02;90.36;102230.15;1785920;80;21012;-75
2022/12/18 00:09:49;;;;;;;44.10;17.60;;;;;;;-4.01;90.27;102241.77;1782975;80;21992;-76
2022/12/18 00:12:16;;;;;;;44.93;18.93;;;;;;;-3.99;90.38;102233.77;1783193;80;21054;-75
2022/12/18 00:14:43;;;;;;;40.77;17.17;;;;;;;-3.98;90.26;102239.77;1782830;80;22057;-75
2022/12/18 00:17:10;;;;;;;39.00;16.90;;;;;;;-3.97;90.31;102236.39;1784412;80;20892;-76
2022/12/18 00:19:37;;;;;;;33.57;14.97;;;;;;;-3.96;90.17;102241.61;1778772;80;21036;-75
2022/12/18 00:22:04;;;;;;;41.10;15.00;;;;;;;-3.99;90.07;102245.30;1756062;80;21011;-75
2022/12/18 00:24:32;;;;;;;39.60;15.83;;;;;;;-3.98;90.21;102246.17;1777547;80;21045;-75
2022/12/18 00:26:59;;;;;;;34.47;14.53;;;;;;;-3.96;90.28;102249.30;1760964;80;21193;-75
2022/12/18 00:29:26;;;;;;;37.77;15.53;;;;;;;-3.92;90.24;102250.33;1780686;80;21427;-75
2022/12/18 00:31:53;;;;;;;39.93;16.27;;;;;;;-3.90;90.30;102256.01;1776418;80;21541;-75
2022/12/18 00:34:20;;;;;;;37.77;16.07;;;;;;;-3.87;90.33;102260.41;1775112;80;21047;-75
2022/12/18 00:36:48;;;;;;;41.77;17.40;;;;;;;-3.85;90.31;102260.97;1776371;80;21468;-76
2022/12/18 00:39:15;;;;;;;45.90;19.23;;;;;;;-3.88;90.03;102265.94;1764484;80;21900;-76
2022/12/18 00:44:29;;;;;;;41.40;19.57;;;;;;;-3.86;90.32;102275.84;1775180;80;21433;-76
2022/12/18 00:46:58;;;;;;;39.17;17.37;;;;;;;-3.85;90.29;102285.72;1766604;80;21026;-75
2022/12/18 00:49:25;;;;;;;40.83;17.13;;;;;;;-3.84;90.18;102288.34;1755451;80;21016;-76
2022/12/18 00:51:52;;;;;;;42.20;16.53;;;;;;;-3.85;89.99;102293.41;1757816;80;20988;-75
2022/12/18 00:54:19;;;;;;;37.40;15.50;;;;;;;-3.85;90.08;102289.16;1775137;80;21418;-75
2022/12/18 00:56:46;;;;;;;40.90;16.30;;;;;;;-3.83;90.08;102291.37;1775912;80;21549;-75
2022/12/18 00:59:13;;;;;;;39.47;16.33;;;;;;;-3.83;89.98;102295.22;1774874;80;20981;-76
2022/12/18 01:01:40;;;;;;;40.43;16.33;;;;;;;-3.83;89.94;102304.18;1774894;80;21062;-76
2022/12/18 01:04:07;;;;;;;38.20;15.73;;;;;;;-3.83;89.92;102302.91;1765643;80;21130;-76
2022/12/18 01:06:35;;;;;;;31.73;13.63;;;;;;;-3.81;90.01;102307.71;1772501;80;21003;-77
2022/12/18 01:09:03;;;;;;;37.47;14.97;;;;;;;-3.78;89.99;102308.28;1768421;80;20968;-76
2022/12/18 01:11:31;;;;;;;34.60;14.87;;;;;;;-3.77;90.01;102311.71;1773505;80;20976;-75
2022/12/18 01:13:58;;;;;;;34.20;14.50;;;;;;;-3.76;90.00;102309.24;1745299;80;21306;-77
2022/12/18 01:16:25;;;;;;;41.50;16.50;;;;;;;-3.73;90.04;102314.94;1761741;80;22090;-76
2022/12/18 01:18:54;;;;;;;39.03;15.03;;;;;;;-3.73;89.90;102318.37;1746925;80;20992;-75
2022/12/18 01:21:23;;;;;;;36.47;15.83;;;;;;;-3.75;89.77;102324.21;1766867;80;21021;-76
2022/12/18 01:23:56;;;;;;;37.03;15.47;;;;;;;-3.75;89.83;102325.09;1764901;80;21004;-75
2022/12/18 01:26:27;;;;;;;35.40;16.03;;;;;;;-3.72;90.02;102324.37;1775266;80;21541;-75
2022/12/18 01:28:56;;;;;;;38.33;15.28;;;;;;;-3.72;89.88;102320.52;1767292;80;21144;-75
2022/12/18 01:31:28;;;;;;;36.83;16.77;;;;;;;-3.70;90.10;102318.52;1765396;81;21002;-76
2022/12/18 01:33:57;;;;;;;37.80;16.57;;;;;;;-3.68;90.06;102326.30;1766322;81;21008;-75
2022/12/18 01:36:28;;;;;;;34.07;15.63;;;;;;;-3.66;89.99;102324.30;1766735;80;20996;-76
2022/12/18 01:38:56;;;;;;;39.40;17.20;;;;;;;-3.65;89.97;102330.30;1766567;80;21342;-75
2022/12/18 01:45:02;;;;;;;43.63;17.80;;;;;;;-3.64;89.92;102335.90;1766446;81;20992;-75
2022/12/18 01:47:49;;;;;;;39.20;16.53;;;;;;;-3.68;89.89;102332.30;1707117;81;21014;-75
2022/12/18 01:50:33;;;;;;;39.07;15.03;;;;;;;-3.67;89.99;102332.77;1765913;81;20895;-75
2022/12/18 01:53:15;;;;;;;36.73;14.43;;;;;;;-3.69;89.93;102334.77;1748679;81;21034;-74
2022/12/18 01:55:53;;;;;;;39.83;15.43;;;;;;;-3.68;90.02;102333.59;1764455;81;22021;-75
2022/12/18 01:58:26;;;;;;;39.50;17.27;;;;;;;-3.63;90.09;102338.92;1766643;81;20981;-75
2022/12/18 02:00:55;;;;;;;37.23;15.87;;;;;;;-3.60;90.11;102348.09;1766434;81;21024;-75
2022/12/18 02:03:22;;;;;;;39.10;16.40;;;;;;;-3.59;90.08;102345.99;1766020;81;21013;-75
2022/12/18 02:06:17;;;;;;;39.87;16.77;;;;;;;-3.56;90.02;102342.70;1765585;81;21000;-75
2022/12/18 02:09:15;;;;;;;38.27;17.07;;;;;;;-3.56;90.00;102344.87;1766781;81;21140;-76
2022/12/18 02:12:01;;;;;;;44.77;20.43;;;;;;;-3.55;89.92;102340.20;1766595;81;20965;-78
2022/12/18 02:15:02;;;;;;;41.47;19.17;;;;;;;-3.54;89.99;102340.71;1766685;81;21016;-76
2022/12/18 02:17:37;;;;;;;41.20;19.03;;;;;;;-3.54;89.98;102339.84;1748098;81;21533;-76
2022/12/18 02:20:18;;;;;;;43.23;18.87;;;;;;;-3.53;90.12;102345.02;1767038;80;21079;-75
2022/12/18 02:23:20;;;;;;;45.93;19.47;;;;;;;-3.51;90.06;102348.95;1765976;81;21137;-77
2022/12/18 02:26:32;;;;;;;37.77;16.93;;;;;;;-3.50;90.01;102357.99;1766140;81;21463;-77
2022/12/18 02:29:19;;;;;;;41.63;17.27;;;;;;;-3.50;89.93;102353.27;1753434;80;20983;-75
2022/12/18 02:31:53;;;;;;;38.63;16.27;;;;;;;-3.54;89.72;102357.38;1765331;80;20999;-77
2022/12/18 02:34:24;;;;;;;38.20;15.80;;;;;;;-3.54;89.79;102361.22;1767846;80;21417;-76
2022/12/18 02:36:54;;;;;;;35.67;16.37;;;;;;;-3.51;89.89;102363.06;1782719;80;21473;-74
2022/12/18 02:39:24;;;;;;;33.02;15.05;;;;;;;-3.49;89.97;102361.05;1776708;80;21003;-75
2022/12/18 02:41:52;;;;;;;;;;;;;;;-3.46;89.96;102359.93;1785513;80;21003;-75
2022/12/18 02:44:21;;;;;;;35.63;15.87;;;;;;;-3.44;89.87;102354.86;1781473;80;20462;-76
2022/12/18 02:46:53;;;;;;;34.67;15.77;;;;;;;-3.43;89.84;102356.23;1787349;78;20967;-76
2022/12/18 02:49:42;;;;;;;34.30;15.60;;;;;;;-3.41;89.59;102363.98;1787740;80;21142;-77
2022/12/18 02:52:44;;;;;;;33.18;14.58;;;;;;;-3.42;89.45;102361.84;1771497;78;21023;-76
2022/12/18 02:55:39;;;;;;;38.63;15.90;;;;;;;-3.47;89.16;102360.71;1779486;78;21007;-75
2022/12/18 02:58:31;;;;;;;36.73;15.27;;;;;;;-3.48;89.24;102356.39;1751353;80;21003;-76
2022/12/18 03:01:17;;;;;;;36.63;15.40;;;;;;;-3.49;89.25;102359.77;1755041;80;21023;-75
2022/12/18 03:03:55;;;;;;;34.60;15.77;;;;;;;-3.52;89.10;102358.71;1779861;78;21129;-75
2022/12/18 03:06:48;;;;;;;33.97;15.10;;;;;;;-3.57;88.99;102355.94;1786471;80;21015;-76
2022/12/18 03:09:23;;;;;;;37.57;15.43;;;;;;;-3.57;89.26;102366.19;1766304;80;21560;-75
2022/12/18 03:14:45;;;;;;;37.80;15.13;;;;;;;-3.53;89.38;102364.66;1779769;80;21007;-77
2022/12/18 03:17:18;;;;;;;38.03;14.97;;;;;;;-3.53;89.25;102362.09;1787879;80;21049;-75
2022/12/18 03:19:47;;;;;;;37.63;15.90;;;;;;;-3.54;89.24;102361.22;1787937;78;21066;-76
2022/12/18 03:22:16;;;;;;;31.07;15.10;;;;;;;-3.51;89.29;102361.78;1774285;80;21007;-76
2022/12/18 03:24:48;;;;;;;35.40;15.98;;;;;;;-3.51;89.20;102357.52;1754015;78;20987;-76
2022/12/18 03:27:20;;;;;;;37.15;15.63;;;;;;;-3.50;89.31;102356.71;1785527;78;20995;-75
2022/12/18 03:30:08;;;;;;;37.03;15.87;;;;;;;-3.48;89.27;102360.65;1761783;80;21236;-75
2022/12/18 03:33:03;;;;;;;32.30;14.70;;;;;;;-3.47;89.15;102359.84;1729702;80;20976;-74
2022/12/18 03:35:35;;;;;;;35.73;16.37;;;;;;;-3.47;89.16;102360.71;1722841;80;20996;-76
2022/12/18 03:38:04;;;;;;;37.13;16.10;;;;;;;-3.44;89.16;102361.27;1775331;80;20992;-76
2022/12/18 03:40:47;;;;;;;36.40;15.80;;;;;;;-3.42;89.19;102361.84;1755863;80;21053;-76
2022/12/18 03:43:42;;;;;;;38.43;17.00;;;;;;;-3.39;89.23;102361.11;1736986;79;21134;-76
2022/12/18 03:46:18;;;;;;;36.30;16.53;;;;;;;-3.40;89.11;102366.65;1775918;80;20987;-76
2022/12/18 03:48:52;;;;;;;38.57;17.37;;;;;;;-3.43;89.08;102374.19;1767164;80;21488;-76
2022/12/18 03:51:28;;;;;;;37.40;17.03;;;;;;;-3.41;89.13;102374.24;1775243;80;21007;-76
2022/12/18 03:54:00;;;;;;;40.03;17.17;;;;;;;-3.41;89.15;102370.03;1762221;80;21014;-76
2022/12/18 03:56:37;;;;;;;41.67;17.87;;;;;;;-3.39;89.17;102367.12;1774327;79;22073;-76
2022/12/18 03:59:08;;;;;;;39.53;17.00;;;;;;;-3.40;88.93;102373.47;1751967;79;21060;-76
2022/12/18 04:01:42;;;;;;;34.50;16.57;;;;;;;-3.44;88.78;102375.37;1766396;80;21015;-76
2022/12/18 04:04:12;;;;;;;37.90;15.97;;;;;;;-3.46;88.82;102380.44;1749758;80;20987;-77
2022/12/18 04:06:43;;;;;;;39.53;17.43;;;;;;;-3.47;88.86;102394.45;1775711;80;20987;-77
2022/12/18 04:09:11;;;;;;;36.40;16.30;;;;;;;-3.45;88.94;102397.57;1768669;79;21106;-76
2022/12/18 04:11:43;;;;;;;35.27;16.80;;;;;;;-3.44;88.92;102401.01;1738954;79;21007;-75
2022/12/18 04:14:11;;;;;;;32.67;15.10;;;;;;;-3.48;88.65;102401.27;1777332;80;21039;-76
2022/12/18 04:16:38;;;;;;;32.53;14.47;;;;;;;-3.49;88.71;102411.05;1777171;80;20944;-75
2022/12/18 04:19:07;;;;;;;34.47;15.50;;;;;;;-3.48;88.79;102408.95;1772247;80;21011;-76
2022/12/18 04:21:36;;;;;;;35.90;15.93;;;;;;;-3.46;88.79;102412.48;1761358;80;21140;-75
2022/12/18 04:24:04;;;;;;;38.33;16.37;;;;;;;-3.43;88.78;102415.20;1776234;80;21024;-75
2022/12/18 04:26:33;;;;;;;33.60;14.87;;;;;;;-3.48;88.66;102407.67;1777308;79;21000;-75
2022/12/18 04:29:02;;;;;;;32.43;14.07;;;;;;;-3.48;88.69;102406.39;1763874;80;21413;-75
2022/12/18 04:31:29;;;;;;;29.80;14.23;;;;;;;-3.48;88.76;102414.08;1754461;80;21544;-76
2022/12/18 04:33:57;;;;;;;26.30;11.70;;;;;;;-3.48;88.65;102421.77;1770067;79;21129;-75
2022/12/18 04:36:27;;;;;;;27.57;11.83;;;;;;;-3.53;88.34;102428.33;1746734;80;21533;-75
2022/12/18 04:38:55;;;;;;;27.23;11.97;;;;;;;-3.57;88.31;102430.27;1777092;80;21023;-76
2022/12/18 04:41:22;;;;;;;24.60;11.37;;;;;;;-3.59;88.38;102432.73;1777305;80;21036;-75
2022/12/18 04:43:50;;;;;;;25.07;12.13;;;;;;;-3.63;88.31;102435.05;1777123;79;21267;-76
2022/12/18 04:46:17;;;;;;;25.90;11.07;;;;;;;-3.66;88.27;102437.45;1775484;79;21490;-77
2022/12/18 04:48:46;;;;;;;25.23;11.40;;;;;;;-3.73;88.15;102443.06;1746204;80;21087;-75
2022/12/18 04:51:14;;;;;;;21.33;10.20;;;;;;;-3.78;88.29;102449.20;1762506;79;20987;-76
2022/12/18 04:53:41;;;;;;;25.47;10.33;;;;;;;-3.80;88.33;102449.52;1767102;80;21486;-77
2022/12/18 04:56:12;;;;;;;23.87;10.43;;;;;;;-3.81;88.35;102444.80;1767720;80;21529;-75
2022/12/18 04:58:41;;;;;;;20.20;9.87;;;;;;;-3.83;88.35;102445.51;1723450;80;21103;-76
2022/12/18 05:01:09;;;;;;;22.83;10.73;;;;;;;-3.83;88.35;102453.19;1746656;80;21035;-75
2022/12/18 05:03:37;;;;;;;24.27;10.93;;;;;;;-3.86;88.36;102456.47;1772824;79;20968;-76
2022/12/18 05:06:06;;;;;;;27.93;11.90;;;;;;;-3.90;88.28;102451.98;1770307;80;20967;-76
2022/12/18 05:08:33;;;;;;;26.17;11.33;;;;;;;-3.89;88.54;102455.02;1766245;80;20987;-75
2022/12/18 05:11:04;;;;;;;28.83;11.20;;;;;;;-3.87;88.66;102457.28;1770111;80;21113;-75
2022/12/18 05:13:32;;;;;;;25.40;11.80;;;;;;;-3.84;88.72;102460.00;1774199;80;21015;-76
2022/12/18 05:16:00;;;;;;;28.70;11.33;;;;;;;-3.82;88.76;102466.51;1777003;80;21469;-76
2022/12/18 05:18:27;;;;;;;26.00;11.23;;;;;;;-3.79;88.79;102463.23;1776768;80;21059;-76
2022/12/18 05:20:55;;;;;;;25.37;11.80;;;;;;;-3.77;88.69;102474.42;1748536;80;21008;-75
2022/12/18 05:23:23;;;;;;;31.07;14.03;;;;;;;-3.76;88.70;102466.83;1722958;80;21943;-75
2022/12/18 05:25:58;;;;;;;29.53;13.07;;;;;;;-3.77;88.44;102473.14;1772148;79;21332;-75
2022/12/18 05:28:28;;;;;;;28.97;12.00;;;;;;;-3.82;88.36;102472.91;1776375;80;21062;-76
2022/12/18 05:30:59;;;;;;;26.25;11.88;;;;;;;-3.86;88.34;102482.49;1769862;80;21003;-75
2022/12/18 05:33:27;;;;;;;;;;;;;;;-3.88;88.28;102486.64;1779724;80;21023;-75
2022/12/18 05:35:58;;;;;;;25.87;11.37;;;;;;;-3.93;88.20;102494.50;1777095;80;21772;-76
2022/12/18 05:38:27;;;;;;;26.90;10.83;;;;;;;-3.94;88.36;102498.72;1776034;80;20995;-76
2022/12/18 05:40:55;;;;;;;25.63;11.53;;;;;;;-3.95;88.25;102503.36;1776967;80;21516;-76
2022/12/18 05:43:24;;;;;;;26.23;11.60;;;;;;;-3.95;88.34;102505.05;1776947;80;20984;-75
2022/12/18 05:45:53;;;;;;;28.87;12.90;;;;;;;-3.93;88.43;102504.75;1777060;80;21014;-77
2022/12/18 05:48:21;;;;;;;26.43;12.73;;;;;;;-3.93;88.46;102503.47;1773307;80;21112;-76
2022/12/18 05:50:50;;;;;;;27.43;11.53;;;;;;;-3.94;88.32;102508.09;1770147;80;21489;-75
2022/12/18 05:53:19;;;;;;;31.07;12.40;;;;;;;-3.96;88.43;102513.52;1774502;79;21421;-75
2022/12/18 05:55:47;;;;;;;28.20;11.93;;;;;;;-4.00;88.22;102520.15;1761854;80;20980;-76
2022/12/18 05:58:15;;;;;;;25.23;11.33;;;;;;;-4.01;88.29;102525.20;1772656;80;21477;-75
2022/12/18 06:00:45;;;;;;;28.40;11.30;;;;;;;-4.00;88.36;102522.72;1744803;80;21124;-76
2022/12/18 06:03:13;;;;;;;27.25;11.93;;;;;;;-3.99;88.40;102523.59;1763992;79;21434;-76
2022/12/18 06:05:44;;;;;;;30.80;12.17;;;;;;;-3.98;88.36;102535.63;1761681;80;21023;-75
2022/12/18 06:08:12;;;;;;;29.80;11.60;;;;;;;-4.04;88.00;102533.59;1772732;80;21043;-76
2022/12/18 06:10:41;;;;;;;29.30;12.60;;;;;;;-4.18;87.87;102536.66;1767196;80;21007;-75
2022/12/18 06:13:08;;;;;;;27.80;11.30;;;;;;;-4.23;88.13;102536.78;1776950;80;22072;-76
2022/12/18 06:15:38;;;;;;;31.47;13.70;;;;;;;-4.26;88.15;102536.61;1766379;79;21042;-75
2022/12/18 06:18:05;;;;;;;32.23;13.13;;;;;;;-4.32;88.04;102535.86;1767893;80;21008;-76
2022/12/18 06:20:32;;;;;;;28.73;12.80;;;;;;;-4.35;88.24;102539.89;1776053;80;20923;-76
2022/12/18 06:22:59;;;;;;;36.70;13.63;;;;;;;-4.35;88.48;102540.81;1777016;80;21327;-77
2022/12/18 06:25:26;;;;;;;31.17;14.53;;;;;;;-4.32;88.48;102549.94;1771002;80;21108;-78
2022/12/18 06:27:53;;;;;;;29.23;12.67;;;;;;;-4.34;88.46;102550.24;1745821;80;21540;-76
2022/12/18 06:30:21;;;;;;;26.80;12.87;;;;;;;-4.33;88.50;102553.68;1774566;80;21038;-76
2022/12/18 06:32:50;;;;;;;30.60;12.77;;;;;;;-4.33;88.51;102556.23;1774859;80;21458;-76
2022/12/18 06:35:17;;;;;;;35.83;13.93;;;;;;;-4.35;88.45;102560.01;1776087;80;20999;-76
2022/12/18 06:37:44;;;;;;;37.40;15.63;;;;;;;-4.32;88.61;102560.59;1766500;80;22169;-75
2022/12/18 06:40:11;;;;;;;30.27;13.77;;;;;;;-4.32;88.62;102556.34;1771123;80;21058;-75
2022/12/18 06:42:38;;;;;;;31.80;13.97;;;;;;;-4.29;88.76;102562.92;1772662;80;20973;-76
2022/12/18 06:45:06;;;;;;;39.27;15.67;;;;;;;-4.27;88.76;102565.18;1760540;79;21502;-76
2022/12/18 06:47:33;;;;;;;75.07;33.40;;;;;;;-4.26;88.63;102573.73;1756991;80;21059;-76
2022/12/18 06:50:00;;;;;;;48.97;22.87;;;;;;;-4.24;88.67;102568.28;1766405;80;22002;-76
2022/12/18 06:52:27;;;;;;;39.43;19.97;;;;;;;-4.22;88.74;102565.42;1748093;80;21063;-76
2022/12/18 06:54:54;;;;;;;37.23;14.97;;;;;;;-4.23;88.55;102570.48;1731010;80;21444;-76
2022/12/18 06:57:21;;;;;;;41.27;18.50;;;;;;;-4.25;88.49;102571.66;1770450;80;20996;-76
2022/12/18 06:59:48;;;;;;;31.43;13.77;;;;;;;-4.27;88.39;102575.79;1773702;80;20968;-76
2022/12/18 07:02:15;;;;;;;37.10;16.23;;;;;;;-4.32;88.37;102567.86;1777326;80;21880;-76
2022/12/18 07:04:43;;;;;;;28.93;13.43;;;;;;;-4.34;88.22;102569.44;1777072;79;21011;-76
2022/12/18 07:07:10;;;;;;;30.67;14.80;;;;;;;-4.38;88.16;102568.80;1723373;80;21560;-76
2022/12/18 07:09:37;;;;;;;32.83;14.97;;;;;;;-4.39;88.21;102566.13;1755595;80;21004;-76
2022/12/18 07:12:04;;;;;;;43.23;20.17;;;;;;;-4.44;88.06;102565.84;1766608;80;21003;-76
2022/12/18 07:14:32;;;;;;;37.60;18.50;;;;;;;-4.47;88.21;102566.95;1769183;80;21124;-76
2022/12/18 07:16:59;;;;;;;39.97;20.40;;;;;;;-4.46;88.38;102578.98;1764066;80;21621;-76
2022/12/18 07:19:26;;;;;;;42.13;17.73;;;;;;;-4.46;88.39;102580.62;1777097;80;21035;-76
2022/12/18 07:21:53;;;;;;;34.97;18.50;;;;;;;-4.44;88.48;102585.45;1766323;80;21063;-76
2022/12/18 07:24:20;;;;;;;30.73;13.13;;;;;;;-4.44;88.42;102586.33;1771643;79;21469;-77
2022/12/18 07:26:48;;;;;;;32.97;13.93;;;;;;;-4.48;88.19;102595.91;1772167;79;21107;-76
2022/12/18 07:29:15;;;;;;;37.63;14.17;;;;;;;-4.50;88.18;102603.48;1745060;80;21892;-76
2022/12/18 07:31:42;;;;;;;41.50;18.03;;;;;;;-4.51;88.15;102595.33;1770775;80;21465;-74
2022/12/18 07:34:14;;;;;;;32.07;14.70;;;;;;;-4.53;88.22;102603.70;1779672;80;21007;-74
2022/12/18 07:36:42;;;;;;;43.07;15.80;;;;;;;-4.53;88.17;102613.55;1782960;80;21228;-74
2022/12/18 07:39:10;;;;;;;29.50;13.97;;;;;;;-4.55;88.12;102617.67;1779240;80;21095;-75
2022/12/18 07:41:37;;;;;;;31.43;14.07;;;;;;;-4.54;88.29;102609.63;1785259;78;21509;-73
2022/12/18 07:44:06;;;;;;;32.30;13.90;;;;;;;-4.52;88.28;102609.30;1781487;80;21054;-76
2022/12/18 07:46:33;;;;;;;38.37;15.87;;;;;;;-4.52;88.30;102620.45;1784385;78;20912;-74
2022/12/18 07:49:00;;;;;;;46.83;17.33;;;;;;;-4.50;88.41;102620.52;1780366;78;21313;-75
2022/12/18 07:51:26;;;;;;;40.13;16.80;;;;;;;-4.45;88.63;102624.65;1785292;78;21061;-73
2022/12/18 07:53:53;;;;;;;35.40;16.17;;;;;;;-4.40;88.79;102624.13;1781261;80;21023;-73
2022/12/18 07:56:21;;;;;;;31.57;14.43;;;;;;;-4.36;88.68;102635.42;1775362;80;21026;-73
2022/12/18 07:58:50;;;;;;;34.23;14.57;;;;;;;-4.36;88.51;102640.55;1781902;80;20971;-73
2022/12/18 08:01:17;;;;;;;33.80;14.00;;;;;;;-4.37;88.48;102643.51;1781616;78;21046;-73
2022/12/18 08:03:44;;;;;;;34.07;15.67;;;;;;;-4.36;88.37;102642.70;1785354;80;21167;-73
2022/12/18 08:06:11;;;;;;;45.93;17.87;;;;;;;-4.37;88.30;102647.34;1785157;78;21029;-73
2022/12/18 08:08:40;;;;;;;39.20;15.70;;;;;;;-4.36;88.47;102646.95;1785077;80;21476;-72
2022/12/18 08:11:07;;;;;;;31.53;13.53;;;;;;;-4.35;88.45;102646.14;1785595;80;20998;-77
2022/12/18 08:13:34;;;;;;;41.93;15.50;;;;;;;-4.36;88.19;102658.47;1783994;78;21468;-80
2022/12/18 08:16:06;;;;;;;36.60;15.40;;;;;;;-4.41;88.02;102654.74;1781349;78;21524;-75
2022/12/18 08:18:36;;;;;;;34.50;14.47;;;;;;;-4.42;88.24;102665.78;1784709;78;21011;-75
2022/12/18 08:21:23;;;;;;;38.17;16.40;;;;;;;-4.43;88.16;102658.51;1785295;80;22210;-75
2022/12/18 08:23:52;;;;;;;34.30;14.27;;;;;;;-4.47;87.96;102664.62;1776979;80;21074;-75
2022/12/18 08:26:20;;;;;;;37.33;14.30;;;;;;;-4.51;87.99;102671.23;1785489;80;21508;-75
2022/12/18 08:28:50;;;;;;;32.20;14.37;;;;;;;-4.52;88.08;102675.48;1782841;80;21126;-75
2022/12/18 08:31:20;;;;;;;36.53;16.00;;;;;;;-4.52;88.12;102675.84;1769198;80;21489;-76
2022/12/18 08:33:55;;;;;;;49.60;20.45;;;;;;;-4.49;88.28;102667.07;1770331;80;21483;-74
2022/12/18 08:36:26;;;;;;;39.10;17.10;;;;;;;-4.45;88.38;102666.48;1765425;80;21023;-75
2022/12/18 08:38:57;;;;;;;80.27;33.97;;;;;;;-4.41;88.38;102667.54;1774858;80;21022;-74
2022/12/18 08:41:27;;;;;;;59.73;25.07;;;;;;;-4.37;88.34;102679.75;1765396;80;21059;-74
2022/12/18 08:46:44;;;;;;;55.80;23.17;;;;;;;-4.33;88.17;102683.84;1766599;80;20995;-75
2022/12/18 08:49:13;;;;;;;145.00;47.87;;;;;;;-4.31;88.04;102682.67;1770689;80;21026;-75
2022/12/18 08:51:40;;;;;;;93.13;31.13;;;;;;;-4.34;87.91;102674.81;1767680;80;21995;-73
2022/12/18 08:54:10;;;;;;;49.83;22.67;;;;;;;-4.34;87.88;102663.30;1772873;80;21119;-75
2022/12/18 08:56:37;;;;;;;60.47;26.17;;;;;;;-4.35;87.86;102655.11;1771817;80;22047;-75
2022/12/18 08:59:04;;;;;;;59.17;27.37;;;;;;;-4.35;87.89;102661.13;1771438;80;21026;-74
2022/12/18 09:01:31;;;;;;;41.80;18.63;;;;;;;-4.33;87.96;102652.25;1768114;80;21042;-74
2022/12/18 09:03:58;;;;;;;40.23;18.97;;;;;;;-4.31;87.92;102644.27;1773479;80;21611;-75
2022/12/18 09:06:26;;;;;;;42.93;19.93;;;;;;;-4.30;87.93;102643.06;1767368;80;21265;-77
2022/12/18 09:09:02;;;;;;;37.57;17.80;;;;;;;-4.30;87.74;102652.42;1765797;80;21042;-75
2022/12/18 09:11:31;;;;;;;41.87;17.63;;;;;;;-4.35;87.52;102646.14;1766819;79;21070;-75
2022/12/18 09:14:03;;;;;;;35.23;16.87;;;;;;;-4.39;87.48;102646.36;1768319;80;20971;-73
2022/12/18 09:16:34;;;;;;;44.80;18.93;;;;;;;-4.39;87.62;102642.53;1773687;79;21042;-71
2022/12/18 09:19:04;;;;;;;43.17;19.97;;;;;;;-4.37;87.72;102642.23;1766288;79;21198;-74
2022/12/18 09:21:34;;;;;;;27.90;14.03;;;;;;;-4.32;87.75;102641.23;1768774;80;21019;-76
2022/12/18 09:24:03;;;;;;;59.20;21.93;;;;;;;-4.33;87.46;102642.88;1770993;79;21070;-74
2022/12/18 09:26:34;;;;;;;66.10;22.60;;;;;;;-4.34;87.42;102640.25;1769881;80;20987;-74
2022/12/18 09:29:06;;;;;;;48.57;21.87;;;;;;;-4.34;87.46;102629.61;1766609;80;22658;-74
2022/12/18 09:31:41;;;;;;;50.47;23.87;;;;;;;-4.31;87.52;102623.79;1772393;80;21148;-75
2022/12/18 09:34:09;;;;;;;39.17;18.00;;;;;;;-4.29;87.61;102623.48;1773002;80;21003;-75
2022/12/18 09:36:37;;;;;;;37.13;17.60;;;;;;;-4.25;87.80;102616.46;1777046;80;21047;-76
2022/12/18 09:39:05;;;;;;;96.97;33.50;;;;;;;-4.24;87.42;102614.78;1777215;80;21003;-75
2022/12/18 09:41:43;;;;;;;92.57;29.70;;;;;;;-4.24;87.33;102623.34;1763800;79;21039;-75
2022/12/18 09:44:28;;;;;;;62.93;21.30;;;;;;;-4.24;87.22;102630.14;1723148;80;21111;-75
2022/12/18 09:47:22;;;;;;;46.53;20.03;;;;;;;-4.24;87.29;102634.86;1767152;80;20995;-75
2022/12/18 09:50:04;;;;;;;83.50;27.07;;;;;;;-4.26;87.10;102642.88;1768525;80;21484;-75
2022/12/18 09:52:40;;;;;;;68.47;25.27;;;;;;;-4.27;87.23;102644.55;1753707;80;21477;-76
2022/12/18 09:55:15;;;;;;;122.47;47.93;;;;;;;-4.26;87.22;102654.39;1776097;80;21003;-75
2022/12/18 09:57:54;;;;;;;209.33;67.80;;;;;;;-4.24;87.21;102649.34;1776994;80;21056;-75
2022/12/18 10:00:25;;;;;;;98.70;35.30;;;;;;;-4.23;87.22;102657.13;1776834;80;21549;-75
2022/12/18 10:03:05;;;;;;;56.27;25.33;;;;;;;-4.20;87.27;102656.44;1777005;80;20983;-74
2022/12/18 10:05:50;;;;;;;50.45;21.27;;;;;;;-4.19;87.17;102648.83;1756995;80;21039;-74
2022/12/18 10:08:35;;;;;;;46.67;22.40;;;;;;;-4.21;87.12;102642.75;1738885;80;21077;-75
2022/12/18 10:11:26;;;;;;;49.50;22.17;;;;;;;-4.18;87.20;102629.25;1750954;79;21101;-74
2022/12/18 10:14:13;;;;;;;50.05;22.82;;;;;;;-4.16;87.14;102632.76;1773058;80;21266;-75
2022/12/18 10:16:58;;;;;;;66.83;27.97;;;;;;;-4.15;87.10;102637.98;1739187;79;21024;-75
2022/12/18 10:19:49;;;;;;;59.17;25.40;;;;;;;-4.12;86.95;102633.04;1768078;80;21003;-74
2022/12/18 10:22:39;;;;;;;59.43;27.93;;;;;;;-4.11;86.97;102635.20;1739106;79;21461;-75
2022/12/18 10:25:24;;;;;;;68.45;30.10;;;;;;;-4.02;87.24;102633.56;1777217;80;21080;-75
2022/12/18 10:27:59;;;;;;;55.23;25.87;;;;;;;-3.99;86.99;102633.73;1771088;80;21063;-75
2022/12/18 10:30:28;;;;;;;48.33;24.10;;;;;;;-4.00;86.85;102635.42;1749074;80;21027;-75
2022/12/18 10:33:02;;;;;;;52.17;24.63;;;;;;;-4.00;86.82;102630.30;1787711;80;21003;-75
2022/12/18 10:35:29;;;;;;;52.43;25.50;;;;;;;-3.97;86.98;102636.00;1787689;80;21022;-75
2022/12/18 10:38:20;;;;;;;48.10;25.30;;;;;;;-3.91;87.05;102646.19;1787811;80;21185;-74
2022/12/18 10:40:59;;;;;;;53.97;27.43;;;;;;;-3.85;86.99;102654.66;1787670;80;20967;-75
2022/12/18 10:43:38;;;;;;;56.90;27.73;;;;;;;-3.81;86.95;102664.28;1787670;80;21484;-75
2022/12/18 10:46:20;;;;;;;49.03;24.63;;;;;;;-3.80;86.68;102659.63;1776813;78;21030;-76
2022/12/18 10:48:52;;;;;;;48.80;24.07;;;;;;;-3.76;86.63;102667.12;1764575;78;21031;-75
2022/12/18 10:51:37;;;;;;;50.17;24.47;;;;;;;-3.80;86.20;102664.75;1775281;80;21285;-74
2022/12/18 10:54:15;;;;;;;35.73;18.53;;;;;;;-3.76;86.32;102666.72;1779886;78;21007;-74
2022/12/18 10:56:44;;;;;;;38.63;19.80;;;;;;;-3.82;85.89;102668.52;1760742;80;21019;-74
2022/12/18 10:59:15;;;;;;;43.40;22.70;;;;;;;-3.82;86.08;102670.21;1787759;80;21002;-74
2022/12/18 11:01:59;;;;;;;40.43;19.93;;;;;;;-3.83;85.83;102673.55;1777141;80;20975;-74
2022/12/18 11:04:30;;;;;;;44.10;21.87;;;;;;;-3.88;85.77;102675.86;1787844;80;21298;-74
2022/12/18 11:07:05;;;;;;;63.67;28.87;;;;;;;-3.81;86.12;102675.81;1776781;78;21038;-74
2022/12/18 11:09:38;;;;;;;67.93;27.40;;;;;;;-3.75;86.19;102671.44;1778514;78;21023;-74
2022/12/18 11:12:16;;;;;;;48.93;22.63;;;;;;;-3.70;85.93;102668.34;1775568;78;20987;-75
2022/12/18 11:14:50;;;;;;;47.67;22.40;;;;;;;-3.68;85.72;102662.91;1778817;80;21050;-74
2022/12/18 11:17:34;;;;;;;44.87;21.23;;;;;;;-3.61;85.71;102657.32;1783049;80;21184;-74
2022/12/18 11:20:02;;;;;;;46.35;20.95;;;;;;;-3.57;85.56;102655.84;1771730;80;21488;-75
2022/12/18 11:22:33;;;;;;;54.97;26.27;;;;;;;-3.53;85.66;102655.20;1760311;80;21040;-75
2022/12/18 11:25:18;;;;;;;46.25;23.75;;;;;;;-3.46;85.65;102656.45;1768434;80;20975;-74
2022/12/18 11:27:53;;;;;;;46.10;23.67;;;;;;;-3.43;85.59;102656.21;1767808;80;21011;-75
2022/12/18 11:30:33;;;;;;;59.97;27.20;;;;;;;-3.40;85.62;102647.41;1766968;79;21966;-75
2022/12/18 11:33:13;;;;;;;72.32;31.15;;;;;;;-3.34;85.59;102638.30;1717334;83;21036;-74
2022/12/18 11:36:03;;;;;;;53.60;25.83;;;;;;;-3.33;85.42;102620.81;1717551;82;21476;-75
2022/12/18 11:38:43;;;;;;;45.87;22.77;;;;;;;-3.35;85.29;102615.63;1719048;82;21024;-75
2022/12/18 11:44:58;;;;;;;43.60;21.47;;;;;;;-3.18;85.48;102616.55;1711739;82;21144;-74
2022/12/18 11:47:43;;;;;;;55.07;27.43;;;;;;;-3.22;85.09;102614.59;1711122;82;21477;-75